Time;durP1;ratioP1;P1;durP2;ratioP2;P2;SDS_P1;SDS_P2;PMS_P1;PMS_P2;Temp;Humidity;BMP_temperature;BMP_pressure;BME280_temperature;BME280_humidity;BME280_pressure;Samples;Min_cycle;Max_cycle;Signal;HPM_P1;HPM_P2
2022/03/03 00:02:02;;;;;;;5.55;4.20;;;;;;;;;;5073473;28;20090;-60
2022/03/03 00:04:28;;;;;;;4.38;3.88;;;;;;;;;;5073647;28;20115;-60
2022/03/03 00:06:54;;;;;;;6.18;4.07;;;;;;;;;;5073652;28;20462;-61
2022/03/03 00:09:20;;;;;;;6.93;4.15;;;;;;;;;;5073675;28;20155;-60
2022/03/03 00:11:46;;;;;;;4.78;3.75;;;;;;;;;;5073709;28;20021;-60
2022/03/03 00:14:12;;;;;;;4.57;3.80;;;;;;;;;;5073516;28;20173;-60
2022/03/03 00:16:38;;;;;;;5.53;4.28;;;;;;;;;;5073437;28;20045;-60
2022/03/03 00:19:04;;;;;;;5.93;4.20;;;;;;;;;;5073444;28;20027;-60
2022/03/03 00:21:30;;;;;;;5.72;4.00;;;;;;;;;;5073390;28;20032;-60
2022/03/03 00:23:56;;;;;;;7.57;4.55;;;;;;;;;;5073170;28;20043;-60
2022/03/03 00:26:22;;;;;;;6.90;4.30;;;;;;;;;;5073587;28;20104;-60
2022/03/03 00:28:48;;;;;;;5.15;4.03;;;;;;;;;;5073313;28;20059;-60
2022/03/03 00:31:14;;;;;;;6.78;5.03;;;;;;;;;;5073586;28;20013;-60
2022/03/03 00:33:40;;;;;;;4.95;4.05;;;;;;;;;;5073123;28;20103;-60
2022/03/03 00:36:06;;;;;;;5.25;4.03;;;;;;;;;;5073095;28;20090;-60
2022/03/03 00:38:32;;;;;;;5.47;4.25;;;;;;;;;;5073058;28;20039;-60
2022/03/03 00:40:58;;;;;;;6.15;4.05;;;;;;;;;;5072968;28;20028;-61
2022/03/03 00:43:23;;;;;;;5.38;4.00;;;;;;;;;;5072896;28;20036;-61
2022/03/03 00:45:49;;;;;;;6.10;4.65;;;;;;;;;;5073145;28;20024;-61
2022/03/03 00:48:15;;;;;;;7.07;4.25;;;;;;;;;;5072952;28;20035;-61
2022/03/03 00:50:41;;;;;;;5.85;4.30;;;;;;;;;;5072302;28;20151;-60
2022/03/03 00:53:07;;;;;;;5.00;3.95;;;;;;;;;;5072780;28;20028;-59
2022/03/03 00:55:33;;;;;;;4.97;3.67;;;;;;;;;;5073050;28;20023;-60
2022/03/03 00:57:59;;;;;;;5.63;4.00;;;;;;;;;;5072954;28;20115;-60
2022/03/03 01:00:25;;;;;;;6.22;4.22;;;;;;;;;;5072752;28;20032;-60
2022/03/03 01:02:51;;;;;;;8.10;4.82;;;;;;;;;;5072280;28;20097;-60
2022/03/03 01:05:17;;;;;;;5.60;4.13;;;;;;;;;;5072625;28;20037;-60
2022/03/03 01:07:43;;;;;;;5.38;3.63;;;;;;;;;;5072709;28;20392;-49
2022/03/03 01:10:15;;;;;;;5.70;4.13;;;;;;;;;;5072820;28;20037;-49
2022/03/03 01:12:41;;;;;;;4.68;4.15;;;;;;;;;;5072468;28;20025;-49
2022/03/03 01:15:14;;;;;;;5.60;4.00;;;;;;;;;;5072446;28;20093;-49
2022/03/03 01:17:41;;;;;;;4.78;4.03;;;;;;;;;;5072419;28;20044;-48
2022/03/03 01:20:07;;;;;;;5.28;4.15;;;;;;;;;;5072123;28;20032;-48
2022/03/03 01:22:33;;;;;;;5.43;3.85;;;;;;;;;;5072385;28;20064;-47
2022/03/03 01:25:00;;;;;;;5.13;4.03;;;;;;;;;;5072213;28;20028;-47
2022/03/03 01:27:26;;;;;;;5.63;4.05;;;;;;;;;;5072182;28;20024;-47
2022/03/03 01:29:52;;;;;;;5.57;4.45;;;;;;;;;;5072354;28;20028;-48
2022/03/03 01:32:18;;;;;;;4.40;3.70;;;;;;;;;;5072365;28;20023;-48
2022/03/03 01:34:44;;;;;;;5.10;4.00;;;;;;;;;;5072005;28;20024;-48
2022/03/03 01:37:10;;;;;;;4.47;3.75;;;;;;;;;;5072001;28;20032;-50
2022/03/03 01:39:36;;;;;;;4.80;3.67;;;;;;;;;;5072100;28;20399;-48
2022/03/03 01:42:02;;;;;;;6.22;4.50;;;;;;;;;;5072013;28;20064;-48
2022/03/03 01:44:28;;;;;;;5.20;3.70;;;;;;;;;;5072005;28;20043;-48
2022/03/03 01:47:00;;;;;;;5.65;4.03;;;;;;;;;;5072241;28;20028;-47
2022/03/03 01:49:26;;;;;;;4.47;3.30;;;;;;;;;;5072218;28;20077;-48
2022/03/03 01:51:52;;;;;;;6.32;4.10;;;;;;;;;;5071857;28;20052;-48
2022/03/03 01:54:19;;;;;;;5.38;4.20;;;;;;;;;;5072131;28;20407;-48
2022/03/03 01:56:51;;;;;;;4.95;3.53;;;;;;;;;;5072163;28;20047;-49
2022/03/03 01:59:21;;;;;;;5.03;3.60;;;;;;;;;;5071921;28;20017;-47
2022/03/03 02:01:47;;;;;;;4.55;3.70;;;;;;;;;;5071940;28;20078;-48
2022/03/03 02:04:13;;;;;;;5.03;3.72;;;;;;;;;;5075771;28;20475;-48
2022/03/03 02:06:39;;;;;;;7.10;4.00;;;;;;;;;;5076024;28;20016;-47
2022/03/03 02:09:05;;;;;;;4.65;3.92;;;;;;;;;;5075636;28;20389;-48
2022/03/03 02:11:31;;;;;;;4.88;3.90;;;;;;;;;;5075717;28;20107;-48
2022/03/03 02:13:58;;;;;;;5.88;3.92;;;;;;;;;;5075655;28;20032;-48
2022/03/03 02:16:24;;;;;;;5.82;3.80;;;;;;;;;;5075556;28;20033;-48
2022/03/03 02:18:50;;;;;;;4.28;3.80;;;;;;;;;;5075830;28;20065;-48
2022/03/03 02:21:16;;;;;;;4.80;3.92;;;;;;;;;;5075511;28;20486;-48
2022/03/03 02:23:42;;;;;;;5.15;4.03;;;;;;;;;;5075649;28;20470;-48
2022/03/03 02:26:18;;;;;;;4.40;3.60;;;;;;;;;;5075262;28;20025;-48
2022/03/03 02:28:44;;;;;;;5.35;4.30;;;;;;;;;;5075424;28;20411;-47
2022/03/03 02:31:10;;;;;;;5.38;3.92;;;;;;;;;;5075325;28;20104;-48
2022/03/03 02:33:36;;;;;;;5.18;4.13;;;;;;;;;;5075288;28;20108;-48
2022/03/03 02:36:24;;;;;;;5.50;3.60;;;;;;;;;;5075280;28;20078;-47
2022/03/03 02:38:54;;;;;;;4.97;3.38;;;;;;;;;;5075249;28;20029;-48
2022/03/03 02:41:25;;;;;;;;;;;;;;;;;;5075764;28;20020;-60
2022/03/03 02:43:51;;;;;;;4.22;3.72;;;;;;;;;;5075205;28;19982;-60
2022/03/03 02:46:17;;;;;;;5.82;3.90;;;;;;;;;;5075238;28;20044;-60
2022/03/03 02:48:43;;;;;;;5.97;4.18;;;;;;;;;;5075190;28;20066;-60
2022/03/03 02:51:10;;;;;;;4.90;3.83;;;;;;;;;;5075120;28;20082;-60
2022/03/03 02:53:36;;;;;;;4.57;3.95;;;;;;;;;;5075106;28;20046;-60
2022/03/03 02:56:03;;;;;;;5.30;3.92;;;;;;;;;;5075118;28;20021;-60
2022/03/03 02:58:30;;;;;;;4.55;3.58;;;;;;;;;;5075034;28;20032;-61
2022/03/03 03:00:56;;;;;;;5.85;4.30;;;;;;;;;;5074998;28;20028;-60
2022/03/03 03:03:22;;;;;;;5.30;3.90;;;;;;;;;;5074582;28;20044;-60
2022/03/03 03:05:48;;;;;;;6.47;3.90;;;;;;;;;;5074880;28;20020;-61
2022/03/03 03:08:14;;;;;;;5.20;3.60;;;;;;;;;;5074853;28;20148;-61
2022/03/03 03:10:41;;;;;;;4.93;4.00;;;;;;;;;;5074754;28;20043;-61
2022/03/03 03:13:14;;;;;;;4.70;3.83;;;;;;;;;;5074137;28;20033;-61
2022/03/03 03:15:41;;;;;;;6.32;4.28;;;;;;;;;;5075059;28;20039;-61
2022/03/03 03:18:22;;;;;;;4.63;3.75;;;;;;;;;;5074886;28;20036;-60
2022/03/03 03:20:49;;;;;;;5.28;3.80;;;;;;;;;;5074896;28;20352;-60
2022/03/03 03:23:17;;;;;;;5.13;3.75;;;;;;;;;;5074501;28;20032;-60
2022/03/03 03:25:43;;;;;;;6.13;3.58;;;;;;;;;;5074488;28;20033;-60
2022/03/03 03:28:17;;;;;;;4.70;3.95;;;;;;;;;;5074413;28;20031;-60
2022/03/03 03:30:43;;;;;;;5.28;3.72;;;;;;;;;;5074831;28;20032;-60
2022/03/03 03:33:09;;;;;;;4.45;3.70;;;;;;;;;;5074394;28;20032;-60
2022/03/03 03:35:36;;;;;;;6.25;3.80;;;;;;;;;;5074632;28;20020;-61
2022/03/03 03:38:03;;;;;;;5.28;3.58;;;;;;;;;;5074620;28;20028;-61
2022/03/03 03:40:29;;;;;;;6.95;4.07;;;;;;;;;;5074457;28;20378;-61
2022/03/03 03:42:55;;;;;;;8.63;3.88;;;;;;;;;;5074161;28;20368;-61
2022/03/03 03:45:21;;;;;;;4.63;3.70;;;;;;;;;;5074098;28;20082;-61
2022/03/03 03:47:47;;;;;;;4.68;3.47;;;;;;;;;;5074318;28;20028;-61
2022/03/03 03:50:13;;;;;;;6.00;3.75;;;;;;;;;;5074000;28;20052;-61
2022/03/03 03:52:40;;;;;;;5.20;4.15;;;;;;;;;;5074017;28;20103;-61
2022/03/03 03:55:13;;;;;;;5.65;4.13;;;;;;;;;;5073991;28;20028;-61
2022/03/03 03:57:39;;;;;;;4.90;3.40;;;;;;;;;;5073888;28;20020;-61
2022/03/03 04:00:13;;;;;;;5.28;3.78;;;;;;;;;;5073863;28;20029;-61
2022/03/03 04:02:39;;;;;;;4.43;3.67;;;;;;;;;;5073661;28;20060;-60
2022/03/03 04:05:06;;;;;;;5.60;3.67;;;;;;;;;;5073924;28;20040;-61
2022/03/03 04:07:32;;;;;;;5.00;4.10;;;;;;;;;;5073947;28;20029;-60
2022/03/03 04:09:58;;;;;;;5.65;4.22;;;;;;;;;;5073673;28;20037;-60
2022/03/03 04:12:24;;;;;;;6.05;4.18;;;;;;;;;;5073608;28;20043;-61
2022/03/03 04:14:50;;;;;;;4.60;3.72;;;;;;;;;;5073545;28;20033;-61
2022/03/03 04:17:16;;;;;;;5.57;3.72;;;;;;;;;;5073445;28;20029;-60
2022/03/03 04:19:42;;;;;;;9.25;3.90;;;;;;;;;;5073620;28;20024;-61
2022/03/03 04:22:08;;;;;;;4.93;4.07;;;;;;;;;;5073441;28;20082;-61
2022/03/03 04:24:33;;;;;;;6.50;4.32;;;;;;;;;;5072680;28;20037;-61
2022/03/03 04:26:59;;;;;;;5.28;3.88;;;;;;;;;;5073035;28;20499;-61
2022/03/03 04:29:25;;;;;;;5.13;4.07;;;;;;;;;;5073658;28;20390;-60
2022/03/03 04:31:53;;;;;;;5.13;4.50;;;;;;;;;;5073476;28;20035;-60
2022/03/03 04:34:20;;;;;;;5.15;4.35;;;;;;;;;;5073674;28;20112;-60
2022/03/03 04:36:46;;;;;;;4.38;3.83;;;;;;;;;;5073003;28;20039;-60
2022/03/03 04:39:12;;;;;;;5.68;3.70;;;;;;;;;;5073308;28;20024;-61
2022/03/03 04:41:39;;;;;;;6.68;4.30;;;;;;;;;;5072960;28;20032;-60
2022/03/03 04:44:05;;;;;;;5.68;3.55;;;;;;;;;;5073059;28;20376;-60
2022/03/03 04:46:31;;;;;;;5.78;4.13;;;;;;;;;;5072964;28;20024;-60
2022/03/03 04:48:59;;;;;;;5.13;3.70;;;;;;;;;;5072901;28;20398;-60
2022/03/03 04:51:25;;;;;;;5.88;4.25;;;;;;;;;;5073096;28;20028;-60
2022/03/03 04:53:51;;;;;;;6.75;4.38;;;;;;;;;;5072763;28;20087;-60
2022/03/03 04:56:18;;;;;;;5.68;3.97;;;;;;;;;;5072739;28;20033;-60
2022/03/03 04:58:45;;;;;;;5.57;4.10;;;;;;;;;;5072976;28;20025;-60
2022/03/03 05:01:11;;;;;;;5.20;4.10;;;;;;;;;;5072678;28;20280;-60
2022/03/03 05:03:37;;;;;;;5.40;4.10;;;;;;;;;;5072494;28;20083;-61
2022/03/03 05:06:03;;;;;;;5.43;4.05;;;;;;;;;;5072960;28;20029;-61
2022/03/03 05:08:29;;;;;;;6.18;4.40;;;;;;;;;;5072708;28;20028;-61
2022/03/03 05:10:55;;;;;;;6.68;4.07;;;;;;;;;;5072547;28;20036;-61
2022/03/03 05:13:21;;;;;;;5.05;4.30;;;;;;;;;;5072602;28;20055;-60
2022/03/03 05:15:47;;;;;;;5.55;4.18;;;;;;;;;;5072506;28;20032;-61
2022/03/03 05:18:13;;;;;;;5.53;4.20;;;;;;;;;;5072505;28;20404;-61
2022/03/03 05:20:39;;;;;;;6.63;4.65;;;;;;;;;;5072664;28;20030;-61
2022/03/03 05:23:05;;;;;;;5.32;4.05;;;;;;;;;;5072429;28;20028;-60
2022/03/03 05:25:31;;;;;;;4.78;3.92;;;;;;;;;;5072352;28;20119;-61
2022/03/03 05:28:02;;;;;;;5.53;4.00;;;;;;;;;;5072276;28;20114;-59
2022/03/03 05:30:28;;;;;;;5.95;4.25;;;;;;;;;;5072592;28;20436;-61
2022/03/03 05:32:54;;;;;;;6.30;4.90;;;;;;;;;;5072298;28;20067;-61
2022/03/03 05:35:21;;;;;;;4.95;3.97;;;;;;;;;;5072313;28;20031;-61
2022/03/03 05:37:47;;;;;;;5.75;4.05;;;;;;;;;;5072280;28;20029;-61
2022/03/03 05:40:14;;;;;;;6.10;4.50;;;;;;;;;;5072204;28;20035;-61
2022/03/03 05:42:40;;;;;;;5.22;4.30;;;;;;;;;;5072624;28;20025;-60
2022/03/03 05:45:06;;;;;;;6.22;4.80;;;;;;;;;;5072228;28;20040;-60
2022/03/03 05:47:33;;;;;;;4.38;3.92;;;;;;;;;;5072273;28;20032;-60
2022/03/03 05:50:00;;;;;;;6.07;4.55;;;;;;;;;;5072422;28;20036;-61
2022/03/03 05:52:27;;;;;;;6.70;4.40;;;;;;;;;;5072186;28;20029;-60
2022/03/03 05:54:54;;;;;;;4.72;3.85;;;;;;;;;;5072069;28;20029;-61
2022/03/03 05:57:41;;;;;;;5.65;4.57;;;;;;;;;;5072133;28;20218;-60
2022/03/03 06:00:09;;;;;;;5.80;4.63;;;;;;;;;;5072380;28;20024;-60
2022/03/03 06:02:35;;;;;;;8.75;4.97;;;;;;;;;;5071859;28;20045;-60
2022/03/03 06:05:13;;;;;;;5.38;3.97;;;;;;;;;;5071893;28;20437;-61
2022/03/03 06:07:44;;;;;;;5.82;4.53;;;;;;;;;;5072332;28;20124;-60
2022/03/03 06:10:10;;;;;;;5.32;4.32;;;;;;;;;;5071950;28;20103;-61
2022/03/03 06:12:56;;;;;;;5.65;4.22;;;;;;;;;;5071932;28;20025;-60
2022/03/03 06:15:23;;;;;;;6.88;4.43;;;;;;;;;;5072146;28;20099;-60
2022/03/03 06:17:49;;;;;;;8.05;4.60;;;;;;;;;;5071896;28;20041;-61
2022/03/03 06:20:16;;;;;;;5.32;4.55;;;;;;;;;;5071864;28;20479;-60
2022/03/03 06:22:42;;;;;;;5.25;3.85;;;;;;;;;;5071831;28;20089;-60
2022/03/03 06:25:08;;;;;;;6.50;4.63;;;;;;;;;;5071939;28;20075;-60
2022/03/03 06:27:34;;;;;;;5.55;4.13;;;;;;;;;;5071810;28;20044;-60
2022/03/03 06:30:00;;;;;;;5.68;4.13;;;;;;;;;;5071751;28;20036;-60
2022/03/03 06:32:26;;;;;;;7.25;4.50;;;;;;;;;;5071996;28;20452;-60
2022/03/03 06:34:52;;;;;;;5.70;4.40;;;;;;;;;;5071776;28;20107;-60
2022/03/03 06:37:18;;;;;;;6.38;4.38;;;;;;;;;;5071692;28;20078;-60
2022/03/03 06:39:44;;;;;;;5.50;4.03;;;;;;;;;;5071751;28;20040;-60
2022/03/03 06:42:10;;;;;;;6.95;4.70;;;;;;;;;;5071948;28;20020;-61
2022/03/03 06:44:36;;;;;;;5.95;4.72;;;;;;;;;;5071617;28;20037;-60
2022/03/03 06:47:02;;;;;;;5.22;4.00;;;;;;;;;;5071653;28;20494;-60
2022/03/03 06:49:29;;;;;;;5.78;4.60;;;;;;;;;;5074253;28;20031;-61
2022/03/03 06:51:56;;;;;;;6.95;4.25;;;;;;;;;;5075441;28;20021;-61
2022/03/03 06:54:23;;;;;;;6.30;4.25;;;;;;;;;;5075267;28;20039;-61
2022/03/03 06:56:51;;;;;;;5.93;4.28;;;;;;;;;;5075387;28;20025;-59
2022/03/03 06:59:18;;;;;;;7.20;4.95;;;;;;;;;;5075179;28;20032;-60
2022/03/03 07:01:47;;;;;;;6.03;4.10;;;;;;;;;;5074686;28;20090;-60
2022/03/03 07:04:14;;;;;;;5.63;4.25;;;;;;;;;;5075113;28;20070;-60
2022/03/03 07:06:40;;;;;;;7.80;5.47;;;;;;;;;;5074817;28;20094;-59
2022/03/03 07:09:08;;;;;;;6.15;4.70;;;;;;;;;;5074802;28;20104;-59
2022/03/03 07:11:34;;;;;;;6.50;4.57;;;;;;;;;;5074675;28;20066;-59
2022/03/03 07:14:00;;;;;;;6.93;5.20;;;;;;;;;;5074939;28;20449;-59
2022/03/03 07:16:47;;;;;;;6.50;5.13;;;;;;;;;;5074544;28;20028;-57
2022/03/03 07:19:25;;;;;;;7.78;4.85;;;;;;;;;;5074495;28;20021;-56
2022/03/03 07:22:13;;;;;;;9.27;5.45;;;;;;;;;;5074626;28;20373;-57
2022/03/03 07:24:45;;;;;;;7.05;4.88;;;;;;;;;;5074419;28;20214;-56
2022/03/03 07:27:19;;;;;;;7.95;5.40;;;;;;;;;;5074550;28;20023;-59
2022/03/03 07:29:47;;;;;;;9.85;5.32;;;;;;;;;;5074523;28;20052;-58
2022/03/03 07:32:15;;;;;;;7.20;5.18;;;;;;;;;;5074299;28;20037;-58
2022/03/03 07:34:47;;;;;;;11.57;5.55;;;;;;;;;;5074219;28;20414;-58
2022/03/03 07:37:20;;;;;;;7.88;5.60;;;;;;;;;;5074132;28;20485;-59
2022/03/03 07:39:46;;;;;;;12.10;5.47;;;;;;;;;;5074283;28;20020;-58
2022/03/03 07:42:12;;;;;;;11.73;6.40;;;;;;;;;;5074175;28;20110;-58
2022/03/03 07:44:38;;;;;;;7.45;5.07;;;;;;;;;;5074030;28;20117;-59
2022/03/03 07:47:04;;;;;;;8.70;5.30;;;;;;;;;;5074117;28;20025;-58
2022/03/03 07:49:31;;;;;;;13.45;5.97;;;;;;;;;;5074281;28;20392;-58
2022/03/03 07:51:58;;;;;;;7.20;4.88;;;;;;;;;;5073927;28;20021;-59
2022/03/03 07:54:24;;;;;;;8.43;4.60;;;;;;;;;;5074244;28;20104;-58
2022/03/03 07:57:00;;;;;;;8.05;5.45;;;;;;;;;;5073860;28;20395;-57
2022/03/03 07:59:36;;;;;;;9.02;4.75;;;;;;;;;;5074001;28;20031;-56
2022/03/03 08:02:08;;;;;;;6.65;4.65;;;;;;;;;;5073857;28;20402;-57
2022/03/03 08:04:34;;;;;;;8.93;4.70;;;;;;;;;;5073666;28;20032;-56
2022/03/03 08:07:13;;;;;;;8.13;4.35;;;;;;;;;;5074009;28;20031;-56
2022/03/03 08:09:44;;;;;;;6.13;4.18;;;;;;;;;;5074007;28;20089;-56
2022/03/03 08:12:10;;;;;;;6.63;5.05;;;;;;;;;;5074026;28;20086;-46
2022/03/03 08:14:36;;;;;;;8.98;4.38;;;;;;;;;;5073526;28;20075;-47
2022/03/03 08:17:02;;;;;;;6.90;4.65;;;;;;;;;;5073497;28;20067;-47
2022/03/03 08:19:33;;;;;;;5.53;4.38;;;;;;;;;;5073709;28;20383;-47
2022/03/03 08:22:04;;;;;;;;;;;;;;;;;;5073895;28;20032;-47
2022/03/03 08:24:30;;;;;;;6.28;4.18;;;;;;;;;;5073404;28;19950;-47
2022/03/03 08:26:56;;;;;;;6.25;4.18;;;;;;;;;;5073503;28;20044;-46
2022/03/03 08:29:22;;;;;;;7.43;4.65;;;;;;;;;;5073370;28;20020;-48
2022/03/03 08:31:57;;;;;;;5.93;4.53;;;;;;;;;;5073204;28;20032;-47
2022/03/03 08:34:29;;;;;;;6.78;4.40;;;;;;;;;;5073287;28;20021;-47
2022/03/03 08:37:02;;;;;;;5.07;4.22;;;;;;;;;;5073309;28;20028;-48
2022/03/03 08:39:29;;;;;;;6.78;4.78;;;;;;;;;;5073033;28;20027;-48
2022/03/03 08:41:59;;;;;;;9.65;4.53;;;;;;;;;;5073030;28;20020;-48
2022/03/03 08:44:26;;;;;;;;;;;;;;;;;;5073456;28;20021;-48
2022/03/03 08:46:52;;;;;;;4.47;3.70;;;;;;;;;;5072882;28;19912;-47
2022/03/03 08:49:18;;;;;;;5.95;4.10;;;;;;;;;;5072841;28;20040;-48
2022/03/03 08:51:44;;;;;;;5.20;4.18;;;;;;;;;;5072742;28;20024;-50
2022/03/03 08:54:11;;;;;;;8.55;4.25;;;;;;;;;;5072769;28;20112;-48
2022/03/03 08:56:37;;;;;;;7.93;4.32;;;;;;;;;;5072677;28;20032;-48
2022/03/03 08:59:03;;;;;;;5.68;3.90;;;;;;;;;;5072682;28;20107;-49
2022/03/03 09:01:29;;;;;;;8.02;3.85;;;;;;;;;;5072638;28;20036;-48
2022/03/03 09:03:58;;;;;;;6.18;3.80;;;;;;;;;;5072488;28;20048;-48
2022/03/03 09:06:25;;;;;;;6.40;3.83;;;;;;;;;;5072926;28;20036;-48
2022/03/03 09:08:51;;;;;;;4.93;3.50;;;;;;;;;;5072814;28;20029;-49
2022/03/03 09:11:18;;;;;;;5.78;3.95;;;;;;;;;;5072380;28;20032;-49
2022/03/03 09:13:44;;;;;;;4.80;3.60;;;;;;;;;;5072541;28;20025;-47
2022/03/03 09:16:11;;;;;;;4.50;3.60;;;;;;;;;;5072357;28;20032;-47
2022/03/03 09:18:37;;;;;;;5.30;4.05;;;;;;;;;;5072218;28;20033;-49
2022/03/03 09:21:03;;;;;;;4.32;3.70;;;;;;;;;;5072348;28;20115;-47
2022/03/03 09:23:29;;;;;;;4.43;3.20;;;;;;;;;;5071153;28;20024;-48
2022/03/03 09:25:55;;;;;;;6.03;4.00;;;;;;;;;;5072314;28;20538;-49
2022/03/03 09:28:21;;;;;;;5.65;3.45;;;;;;;;;;5072331;28;20478;-48
2022/03/03 09:30:47;;;;;;;7.43;3.80;;;;;;;;;;5072348;28;20032;-48
2022/03/03 09:33:13;;;;;;;6.50;3.55;;;;;;;;;;5072585;28;20021;-47
2022/03/03 09:35:39;;;;;;;5.35;3.70;;;;;;;;;;5072256;28;20024;-47
2022/03/03 09:38:05;;;;;;;4.40;3.28;;;;;;;;;;5072423;28;20069;-49
2022/03/03 09:40:31;;;;;;;5.75;3.53;;;;;;;;;;5072291;28;20029;-47
2022/03/03 09:43:05;;;;;;;5.38;3.45;;;;;;;;;;5072328;28;20493;-47
2022/03/03 09:45:35;;;;;;;4.53;3.53;;;;;;;;;;5072372;28;20372;-47
2022/03/03 09:48:05;;;;;;;7.82;4.00;;;;;;;;;;5072144;28;20078;-47
2022/03/03 09:50:35;;;;;;;;;;;;;;;;;;5072910;28;20108;-48
2022/03/03 09:53:04;;;;;;;;;;;;;;;;;;5072818;28;19911;-49
2022/03/03 09:55:30;;;;;;;4.20;3.40;;;;;;;;;;5072344;28;20255;-48
2022/03/03 09:57:56;;;;;;;5.68;3.35;;;;;;;;;;5072024;28;20070;-47
2022/03/03 10:00:22;;;;;;;3.97;3.33;;;;;;;;;;5072071;28;20028;-47
2022/03/03 10:02:58;;;;;;;6.45;3.65;;;;;;;;;;5071915;28;20049;-48
2022/03/03 10:05:34;;;;;;;5.30;3.40;;;;;;;;;;5072155;28;20047;-48
2022/03/03 10:08:01;;;;;;;5.30;3.42;;;;;;;;;;5072262;28;20017;-48
2022/03/03 10:10:26;;;;;;;5.25;3.38;;;;;;;;;;5071979;28;20031;-48
2022/03/03 10:12:59;;;;;;;4.95;3.35;;;;;;;;;;5071951;28;20032;-48
2022/03/03 10:15:26;;;;;;;5.65;3.20;;;;;;;;;;5072183;28;20025;-48
2022/03/03 10:18:21;;;;;;;4.68;3.15;;;;;;;;;;5072190;28;20111;-48
2022/03/03 10:20:51;;;;;;;6.78;3.70;;;;;;;;;;5069495;28;20036;-48
2022/03/03 10:23:22;;;;;;;5.10;3.60;;;;;;;;;;5072448;28;20032;-48
2022/03/03 10:25:48;;;;;;;6.07;3.30;;;;;;;;;;5075902;28;20495;-49
2022/03/03 10:28:14;;;;;;;4.93;3.25;;;;;;;;;;5075563;28;20486;-48
2022/03/03 10:30:52;;;;;;;6.25;3.58;;;;;;;;;;5075623;28;20024;-47
2022/03/03 10:33:22;;;;;;;3.80;3.10;;;;;;;;;;5075551;28;20032;-48
2022/03/03 10:36:00;;;;;;;3.42;2.72;;;;;;;;;;5075805;28;20038;-47
2022/03/03 10:38:27;;;;;;;4.63;3.33;;;;;;;;;;5075651;28;20025;-49
2022/03/03 10:40:53;;;;;;;5.00;3.67;;;;;;;;;;5075434;28;20028;-47
2022/03/03 10:43:19;;;;;;;4.38;3.30;;;;;;;;;;5075516;28;20060;-49
2022/03/03 10:46:01;;;;;;;5.28;2.92;;;;;;;;;;5075155;28;20305;-47
2022/03/03 10:48:31;;;;;;;5.95;3.35;;;;;;;;;;5075460;28;20460;-48
2022/03/03 10:51:00;;;;;;;3.92;3.17;;;;;;;;;;5075199;28;20365;-47
2022/03/03 10:53:26;;;;;;;25.13;4.10;;;;;;;;;;5075359;28;20035;-47
2022/03/03 10:56:04;;;;;;;5.97;3.45;;;;;;;;;;5075062;28;20028;-47
2022/03/03 10:58:52;;;;;;;5.00;3.05;;;;;;;;;;5075237;28;20021;-47
2022/03/03 11:01:19;;;;;;;4.60;3.17;;;;;;;;;;5075104;28;20028;-48
2022/03/03 11:03:49;;;;;;;4.47;2.97;;;;;;;;;;5074810;28;20076;-48
2022/03/03 11:06:17;;;;;;;4.85;3.63;;;;;;;;;;5075096;28;20406;-48
2022/03/03 11:08:43;;;;;;;5.50;3.80;;;;;;;;;;5075151;28;20078;-47
2022/03/03 11:11:09;;;;;;;5.22;3.53;;;;;;;;;;5074788;28;20025;-52
2022/03/03 11:13:36;;;;;;;5.60;3.08;;;;;;;;;;5074795;28;20052;-48
2022/03/03 11:16:02;;;;;;;5.32;3.30;;;;;;;;;;5074729;28;20383;-48
2022/03/03 11:18:29;;;;;;;5.28;3.75;;;;;;;;;;5074596;28;20031;-48
2022/03/03 11:20:55;;;;;;;6.82;3.53;;;;;;;;;;5074650;28;20050;-48
2022/03/03 11:23:21;;;;;;;3.92;3.28;;;;;;;;;;5074527;28;20478;-48
2022/03/03 11:25:49;;;;;;;5.30;3.33;;;;;;;;;;5074341;28;20032;-50
2022/03/03 11:28:15;;;;;;;6.05;3.65;;;;;;;;;;5074426;28;20387;-47
2022/03/03 11:30:43;;;;;;;4.70;3.25;;;;;;;;;;5074347;28;20032;-47
2022/03/03 11:33:26;;;;;;;4.75;3.30;;;;;;;;;;5074950;28;20459;-48
2022/03/03 11:35:53;;;;;;;5.32;3.13;;;;;;;;;;5074113;28;20032;-48
2022/03/03 11:38:20;;;;;;;5.03;3.22;;;;;;;;;;5074285;28;20028;-48
2022/03/03 11:40:57;;;;;;;4.75;2.90;;;;;;;;;;5074141;28;20028;-48
2022/03/03 11:43:23;;;;;;;5.07;3.78;;;;;;;;;;5074430;28;20025;-47
2022/03/03 11:45:50;;;;;;;6.07;3.70;;;;;;;;;;5074002;28;20024;-47
2022/03/03 11:48:19;;;;;;;5.13;2.95;;;;;;;;;;5074346;28;20028;-47
2022/03/03 11:50:45;;;;;;;4.95;2.70;;;;;;;;;;5074334;28;20051;-47
2022/03/03 11:53:11;;;;;;;4.82;3.22;;;;;;;;;;5074023;28;20095;-47
2022/03/03 11:55:39;;;;;;;7.57;3.20;;;;;;;;;;5073689;28;20063;-47
2022/03/03 11:58:10;;;;;;;4.50;3.28;;;;;;;;;;5073936;28;20029;-47
2022/03/03 12:00:42;;;;;;;7.90;2.78;;;;;;;;;;5073948;28;20448;-47
2022/03/03 12:03:08;;;;;;;7.13;3.40;;;;;;;;;;5073442;28;20040;-49
2022/03/03 12:05:40;;;;;;;8.48;3.50;;;;;;;;;;5073548;28;20024;-48
2022/03/03 12:08:12;;;;;;;5.70;3.00;;;;;;;;;;5073940;28;20465;-47
2022/03/03 12:10:38;;;;;;;16.27;2.95;;;;;;;;;;5073613;28;20090;-47
2022/03/03 12:13:27;;;;;;;4.18;2.40;;;;;;;;;;5073634;28;20565;-50
2022/03/03 12:16:13;;;;;;;13.77;3.17;;;;;;;;;;5073788;28;20067;-48
2022/03/03 12:18:40;;;;;;;3.33;2.38;;;;;;;;;;5073484;28;20103;-47
2022/03/03 12:21:35;;;;;;;3.83;2.70;;;;;;;;;;5073418;28;20506;-48
2022/03/03 12:24:31;;;;;;;3.25;2.38;;;;;;;;;;5073376;28;20083;-48
2022/03/03 12:26:58;;;;;;;4.80;3.15;;;;;;;;;;5073464;28;20391;-49
2022/03/03 12:29:52;;;;;;;4.60;2.85;;;;;;;;;;5073633;28;20025;-48
2022/03/03 12:32:38;;;;;;;3.58;2.72;;;;;;;;;;5073173;28;20513;-48
2022/03/03 12:35:06;;;;;;;4.35;3.13;;;;;;;;;;5073372;28;20035;-48
2022/03/03 12:37:32;;;;;;;5.15;2.67;;;;;;;;;;5073096;28;20024;-48
2022/03/03 12:40:03;;;;;;;4.30;2.78;;;;;;;;;;5073095;28;20024;-48
2022/03/03 12:42:30;;;;;;;3.28;2.70;;;;;;;;;;5072990;28;20051;-48
2022/03/03 12:44:58;;;;;;;3.83;2.40;;;;;;;;;;5073231;28;20387;-48
2022/03/03 12:47:41;;;;;;;5.00;2.83;;;;;;;;;;5072497;28;20119;-49
2022/03/03 12:50:18;;;;;;;3.92;2.50;;;;;;;;;;5073109;28;20450;-48
2022/03/03 12:52:59;;;;;;;3.65;2.50;;;;;;;;;;5072810;28;20471;-48
2022/03/03 12:55:35;;;;;;;3.85;2.28;;;;;;;;;;5072821;28;20024;-47
2022/03/03 12:58:03;;;;;;;3.10;2.42;;;;;;;;;;5072728;28;20024;-48
2022/03/03 13:00:37;;;;;;;4.07;2.50;;;;;;;;;;5072683;28;20479;-49
2022/03/03 13:03:03;;;;;;;5.13;2.42;;;;;;;;;;5072580;28;20059;-49
2022/03/03 13:05:41;;;;;;;3.42;2.17;;;;;;;;;;5072979;28;20112;-47
2022/03/03 13:08:08;;;;;;;6.90;2.92;;;;;;;;;;5072551;28;20157;-48
2022/03/03 13:10:34;;;;;;;3.35;2.20;;;;;;;;;;5072393;28;20520;-48
2022/03/03 13:13:01;;;;;;;5.60;2.63;;;;;;;;;;5072787;28;20434;-48
2022/03/03 13:15:45;;;;;;;2.92;2.38;;;;;;;;;;5072545;28;20111;-48
2022/03/03 13:18:25;;;;;;;2.80;2.15;;;;;;;;;;5072483;28;20119;-48
2022/03/03 13:20:51;;;;;;;3.47;1.80;;;;;;;;;;5072543;28;20020;-48
2022/03/03 13:23:17;;;;;;;4.53;2.88;;;;;;;;;;5072460;28;20086;-47
2022/03/03 13:25:43;;;;;;;2.25;1.95;;;;;;;;;;5072278;28;20020;-47
2022/03/03 13:28:11;;;;;;;3.45;2.65;;;;;;;;;;5072094;28;20044;-46
2022/03/03 13:30:49;;;;;;;4.15;2.47;;;;;;;;;;5072358;28;20031;-48
2022/03/03 13:33:15;;;;;;;5.07;2.60;;;;;;;;;;5072235;28;20643;-47
2022/03/03 13:35:41;;;;;;;3.30;2.28;;;;;;;;;;5072307;28;20293;-48
2022/03/03 13:38:08;;;;;;;4.05;2.08;;;;;;;;;;5070757;28;20471;-46
2022/03/03 13:40:35;;;;;;;3.58;2.33;;;;;;;;;;5072357;28;20020;-48
2022/03/03 13:43:02;;;;;;;3.08;2.03;;;;;;;;;;5071939;28;20107;-49
2022/03/03 13:45:32;;;;;;;4.05;2.55;;;;;;;;;;5071917;28;20514;-49
2022/03/03 13:48:18;;;;;;;3.13;1.92;;;;;;;;;;5071796;28;20028;-50
2022/03/03 13:50:45;;;;;;;3.03;2.22;;;;;;;;;;5072299;28;20442;-47
2022/03/03 13:53:13;;;;;;;3.15;2.10;;;;;;;;;;5072128;28;20035;-48
2022/03/03 13:55:39;;;;;;;2.75;2.13;;;;;;;;;;5072080;28;20036;-50
2022/03/03 13:58:05;;;;;;;3.40;2.20;;;;;;;;;;5074185;28;20024;-49
2022/03/03 14:00:43;;;;;;;6.05;2.47;;;;;;;;;;5076281;28;20036;-49
2022/03/03 14:03:12;;;;;;;4.82;1.90;;;;;;;;;;5075976;28;20132;-49
2022/03/03 14:05:53;;;;;;;3.92;2.13;;;;;;;;;;5076120;28;20028;-47
2022/03/03 14:08:23;;;;;;;;;;;;;;;;;;5076733;28;20037;-48
2022/03/03 14:10:57;;;;;;;5.60;2.50;;;;;;;;;;5076275;28;19908;-49
2022/03/03 14:13:24;;;;;;;2.97;2.33;;;;;;;;;;5076200;28;20052;-45
2022/03/03 14:15:52;;;;;;;2.58;1.98;;;;;;;;;;5076141;28;20044;-47
2022/03/03 14:18:20;;;;;;;3.53;2.38;;;;;;;;;;5075813;28;20356;-46
2022/03/03 14:20:46;;;;;;;4.75;2.55;;;;;;;;;;5075830;28;20536;-48
2022/03/03 14:23:12;;;;;;;3.42;2.65;;;;;;;;;;5075631;28;20046;-49
2022/03/03 14:25:38;;;;;;;3.13;2.30;;;;;;;;;;5075671;28;20032;-45
2022/03/03 14:28:04;;;;;;;2.72;2.15;;;;;;;;;;5075522;28;20072;-47
2022/03/03 14:30:30;;;;;;;4.53;2.65;;;;;;;;;;5075559;28;20502;-48
2022/03/03 14:32:56;;;;;;;2.47;2.10;;;;;;;;;;5075492;28;20070;-49
2022/03/03 14:35:23;;;;;;;2.63;2.35;;;;;;;;;;5075443;28;20029;-48
2022/03/03 14:37:49;;;;;;;4.10;2.67;;;;;;;;;;5075428;28;20067;-48
2022/03/03 14:40:16;;;;;;;4.47;1.98;;;;;;;;;;5075294;28;20467;-48
2022/03/03 14:42:42;;;;;;;2.28;1.92;;;;;;;;;;5075402;28;20383;-47
2022/03/03 14:45:10;;;;;;;4.03;2.10;;;;;;;;;;5075577;28;20371;-47
2022/03/03 14:47:36;;;;;;;2.83;2.05;;;;;;;;;;5075164;28;20509;-47
2022/03/03 14:50:02;;;;;;;3.05;2.47;;;;;;;;;;5075242;28;20036;-47
2022/03/03 14:52:28;;;;;;;3.65;2.50;;;;;;;;;;5075204;28;20032;-47
2022/03/03 14:54:54;;;;;;;3.13;2.40;;;;;;;;;;5075165;28;20033;-47